createdAt,value
2022-07-29T00:00:37.981Z,94.80
2022-07-29T00:03:06.714Z,94.60
2022-07-29T00:05:35.307Z,94.40
2022-07-29T00:08:03.793Z,94.50
2022-07-29T00:10:32.352Z,94.50
2022-07-29T00:13:00.882Z,94.40
2022-07-29T00:15:30.898Z,94.20
2022-07-29T00:17:59.383Z,94.30
2022-07-29T00:20:27.883Z,94.30
2022-07-29T00:22:56.449Z,94.30
2022-07-29T00:25:25.138Z,94.20
2022-07-29T00:27:53.580Z,94.50
2022-07-29T00:30:22.216Z,94.60
2022-07-29T00:32:52.135Z,94.80
2022-07-29T00:35:38.147Z,95.30
2022-07-29T00:38:06.687Z,95.80
2022-07-29T00:40:35.183Z,96.40
2022-07-29T00:43:04.818Z,96.50
2022-07-29T00:45:33.535Z,96.70
2022-07-29T00:48:04.381Z,97.00
2022-07-29T00:50:33.746Z,96.80
2022-07-29T00:53:03.203Z,96.80
2022-07-29T00:55:32.149Z,96.70
2022-07-29T00:58:01.512Z,97.10
2022-07-29T01:00:31.335Z,96.90
2022-07-29T01:02:59.971Z,96.90
2022-07-29T01:05:50.913Z,97.00
2022-07-29T01:08:20.751Z,96.80
2022-07-29T01:10:49.933Z,96.60
2022-07-29T01:13:19.471Z,96.70
2022-07-29T01:15:54.008Z,96.50
2022-07-29T01:18:30.454Z,95.40
2022-07-29T01:21:31.589Z,95.30
2022-07-29T01:24:17.536Z,95.70
2022-07-29T01:26:51.331Z,95.70
2022-07-29T01:29:31.008Z,96.20
2022-07-29T01:32:22.551Z,96.50
2022-07-29T01:35:00.716Z,95.90
2022-07-29T01:37:35.062Z,95.70
2022-07-29T01:40:05.580Z,95.20
2022-07-29T01:42:38.899Z,94.90
2022-07-29T01:45:16.238Z,95.00
2022-07-29T01:47:56.586Z,95.20
2022-07-29T01:50:31.674Z,95.10
2022-07-29T01:53:02.832Z,95.10
2022-07-29T01:55:34.497Z,95.20
2022-07-29T01:58:05.273Z,95.00
2022-07-29T02:00:36.869Z,95.20
2022-07-29T02:03:09.675Z,95.10
2022-07-29T02:05:40.077Z,94.90
2022-07-29T02:08:10.453Z,94.30
2022-07-29T02:10:40.729Z,94.90
2022-07-29T02:13:11.880Z,95.00
2022-07-29T02:15:43.466Z,95.50
2022-07-29T02:18:17.922Z,95.50
2022-07-29T02:20:49.859Z,95.50
2022-07-29T02:23:21.654Z,95.30
2022-07-29T02:25:51.431Z,94.50
2022-07-29T02:28:22.726Z,94.10
2022-07-29T02:30:55.602Z,94.00
2022-07-29T02:33:25.990Z,94.30
2022-07-29T02:35:55.224Z,94.20
2022-07-29T02:38:43.577Z,94.20
2022-07-29T02:41:15.729Z,94.30
2022-07-29T02:43:45.783Z,94.30
2022-07-29T02:46:28.767Z,94.60
2022-07-29T02:49:04.276Z,95.00
2022-07-29T02:51:44.539Z,95.20
2022-07-29T02:54:22.460Z,95.60
2022-07-29T02:56:56.485Z,95.70
2022-07-29T02:59:29.238Z,95.70
2022-07-29T03:02:01.246Z,95.70
2022-07-29T03:04:30.598Z,95.70
2022-07-29T03:07:01.530Z,95.40
2022-07-29T03:09:31.084Z,95.60
2022-07-29T03:11:59.840Z,95.00
2022-07-29T03:14:29.279Z,94.90
2022-07-29T03:16:59.570Z,94.70
2022-07-29T03:19:29.373Z,94.70
2022-07-29T03:21:59.363Z,94.40
2022-07-29T03:24:32.751Z,94.20
2022-07-29T03:27:02.431Z,94.00
2022-07-29T03:29:33.576Z,94.10
2022-07-29T03:32:07.994Z,93.90
2022-07-29T03:34:39.142Z,95.00
2022-07-29T03:37:08.597Z,96.00
2022-07-29T03:39:41.947Z,95.90
2022-07-29T03:42:15.217Z,95.80
2022-07-29T03:44:46.004Z,96.20
2022-07-29T03:47:17.156Z,96.40
2022-07-29T03:49:48.768Z,96.40
2022-07-29T03:52:17.638Z,96.00
2022-07-29T03:54:46.346Z,95.70
2022-07-29T03:57:17.072Z,95.90
2022-07-29T03:59:46.318Z,95.10
2022-07-29T04:02:20.171Z,95.40
2022-07-29T04:04:51.840Z,95.80
2022-07-29T04:07:20.450Z,96.00
2022-07-29T04:09:49.013Z,95.30
2022-07-29T04:12:17.499Z,95.10
2022-07-29T04:14:46.072Z,94.80
2022-07-29T04:17:15.963Z,94.40
2022-07-29T04:19:44.476Z,94.70
2022-07-29T04:22:12.932Z,94.30
2022-07-29T04:24:44.318Z,94.60
2022-07-29T04:27:13.214Z,95.20
2022-07-29T04:29:56.225Z,95.70
2022-07-29T04:32:27.604Z,95.30
2022-07-29T04:34:56.096Z,95.10
2022-07-29T04:37:24.675Z,94.30
2022-07-29T04:39:53.207Z,94.40
2022-07-29T04:42:27.608Z,94.20
2022-07-29T04:44:57.796Z,94.20
2022-07-29T04:47:31.318Z,94.10
2022-07-29T04:49:59.848Z,93.80
2022-07-29T04:52:28.537Z,93.70
2022-07-29T04:54:57.011Z,93.40
2022-07-29T04:57:26.312Z,93.40
2022-07-29T04:59:55.330Z,93.50
2022-07-29T05:02:24.093Z,93.80
2022-07-29T05:04:54.083Z,93.80
2022-07-29T05:07:22.642Z,93.90
2022-07-29T05:09:51.130Z,94.00
2022-07-29T05:12:19.702Z,94.30
2022-07-29T05:14:48.132Z,94.40
2022-07-29T05:17:16.666Z,94.10
2022-07-29T05:19:45.200Z,93.40
2022-07-29T05:22:15.235Z,93.10
2022-07-29T05:24:43.705Z,92.70
2022-07-29T05:27:12.269Z,92.60
2022-07-29T05:29:43.907Z,92.50
2022-07-29T05:32:14.715Z,92.20
2022-07-29T05:34:51.439Z,91.90
2022-07-29T05:37:22.091Z,91.70
2022-07-29T05:39:56.602Z,91.30
2022-07-29T05:42:26.047Z,91.00
2022-07-29T05:44:54.569Z,90.70
2022-07-29T05:47:23.272Z,89.60
2022-07-29T05:49:52.623Z,89.10
2022-07-29T05:52:23.344Z,89.30
2022-07-29T05:54:52.942Z,89.20
2022-07-29T05:57:22.937Z,89.60
2022-07-29T05:59:52.799Z,89.10
2022-07-29T06:02:21.494Z,89.80
2022-07-29T06:04:50.501Z,89.30
2022-07-29T06:07:19.014Z,89.40
2022-07-29T06:09:48.932Z,88.70
2022-07-29T06:12:17.492Z,88.10
2022-07-29T06:14:46.174Z,88.60
2022-07-29T06:17:18.901Z,87.40
2022-07-29T06:19:47.412Z,86.70
2022-07-29T06:22:18.291Z,86.60
2022-07-29T06:24:48.184Z,86.70
2022-07-29T06:27:17.343Z,87.50
2022-07-29T06:29:45.858Z,86.40
2022-07-29T06:32:15.119Z,86.70
2022-07-29T06:34:43.671Z,86.90
2022-07-29T06:37:18.723Z,86.50
2022-07-29T06:39:49.196Z,86.40
2022-07-29T06:42:17.702Z,86.60
2022-07-29T06:44:46.182Z,87.00
2022-07-29T06:47:15.006Z,86.90
2022-07-29T06:49:43.570Z,87.00
2022-07-29T06:52:12.050Z,87.20
2022-07-29T06:54:40.955Z,87.40
2022-07-29T06:57:10.841Z,87.10
2022-07-29T06:59:39.488Z,85.60
2022-07-29T07:02:08.011Z,84.50
2022-07-29T07:04:36.526Z,84.60
2022-07-29T07:07:05.013Z,83.60
2022-07-29T07:09:40.016Z,83.10
2022-07-29T07:12:11.159Z,81.60
2022-07-29T07:14:40.799Z,80.70
2022-07-29T07:17:09.541Z,80.10
2022-07-29T07:19:38.096Z,79.40
2022-07-29T07:22:06.593Z,78.50
2022-07-29T07:24:36.860Z,79.40
2022-07-29T07:27:10.298Z,79.40
2022-07-29T07:29:44.246Z,78.90
2022-07-29T07:32:14.348Z,78.20
2022-07-29T07:34:42.999Z,78.50
2022-07-29T07:37:11.503Z,78.00
2022-07-29T07:39:40.029Z,77.90
2022-07-29T07:42:08.649Z,77.60
2022-07-29T07:44:57.267Z,77.70
2022-07-29T07:47:28.049Z,77.30
2022-07-29T07:49:57.224Z,77.00
2022-07-29T07:52:25.795Z,76.80
2022-07-29T07:54:54.315Z,76.10
2022-07-29T07:57:22.890Z,76.60
2022-07-29T07:59:52.745Z,76.20
2022-07-29T08:02:21.349Z,76.60
2022-07-29T08:04:49.846Z,74.50
2022-07-29T08:07:18.435Z,74.30
2022-07-29T08:09:46.997Z,74.60
2022-07-29T08:12:15.528Z,74.00
2022-07-29T08:14:44.014Z,73.40
2022-07-29T08:17:13.855Z,73.00
2022-07-29T08:19:42.341Z,72.70
2022-07-29T08:22:11.065Z,73.50
2022-07-29T08:24:45.302Z,73.30
2022-07-29T08:27:40.860Z,72.30
2022-07-29T08:30:02.998Z,71.10
2022-07-29T08:32:52.533Z,70.40
2022-07-29T08:35:21.859Z,69.10
2022-07-29T08:37:50.448Z,69.00
2022-07-29T08:40:19.090Z,69.10
2022-07-29T08:42:47.743Z,68.90
2022-07-29T08:45:17.072Z,69.40
2022-07-29T08:47:47.578Z,68.80
2022-07-29T08:50:16.144Z,68.70
2022-07-29T08:52:45.230Z,69.30
2022-07-29T08:55:14.644Z,69.40
2022-07-29T08:57:52.007Z,68.80
2022-07-29T09:00:24.915Z,68.30
2022-07-29T09:03:00.237Z,67.30
2022-07-29T09:05:29.751Z,66.30
2022-07-29T09:07:58.433Z,65.90
2022-07-29T09:10:27.209Z,66.40
2022-07-29T09:12:57.118Z,65.90
2022-07-29T09:15:26.730Z,65.90
2022-07-29T09:17:57.746Z,64.60
2022-07-29T09:20:26.805Z,64.50
2022-07-29T09:22:55.961Z,63.20
2022-07-29T09:25:36.982Z,62.40
2022-07-29T09:28:10.016Z,63.10
2022-07-29T09:30:41.574Z,63.40
2022-07-29T09:33:11.510Z,65.20
2022-07-29T09:35:40.419Z,64.40
2022-07-29T09:38:15.684Z,64.40
2022-07-29T09:40:57.816Z,64.00
2022-07-29T09:43:31.610Z,64.00
2022-07-29T09:46:13.061Z,64.30
2022-07-29T09:48:43.138Z,62.90
2022-07-29T09:51:23.004Z,63.00
2022-07-29T09:53:55.638Z,62.30
2022-07-29T09:56:40.855Z,62.90
2022-07-29T09:59:10.250Z,62.20
2022-07-29T10:01:38.737Z,63.20
2022-07-29T10:04:08.779Z,64.30
2022-07-29T10:06:37.352Z,64.10
2022-07-29T10:09:12.410Z,64.40
2022-07-29T10:11:56.954Z,64.70
2022-07-29T10:14:25.966Z,65.50
2022-07-29T10:16:55.036Z,66.30
2022-07-29T10:19:25.495Z,66.90
2022-07-29T10:21:58.021Z,66.70
2022-07-29T10:24:28.394Z,67.40
2022-07-29T10:26:58.107Z,66.50
2022-07-29T10:29:26.967Z,65.20
2022-07-29T10:32:17.560Z,65.00
2022-07-29T10:35:02.559Z,65.10
2022-07-29T10:37:45.709Z,63.90
2022-07-29T10:40:42.276Z,65.10
2022-07-29T10:43:21.817Z,64.70
2022-07-29T10:45:52.077Z,63.60
2022-07-29T10:48:21.308Z,63.80
2022-07-29T10:50:58.277Z,63.20
2022-07-29T10:53:47.273Z,63.50
2022-07-29T10:56:27.418Z,63.30
2022-07-29T10:59:32.350Z,64.00
2022-07-29T11:02:42.100Z,64.20
2022-07-29T11:05:14.294Z,64.30
2022-07-29T11:08:26.112Z,64.70
2022-07-29T11:11:11.049Z,64.90
2022-07-29T11:13:51.233Z,65.60
2022-07-29T11:16:25.167Z,66.20
2022-07-29T11:19:29.944Z,65.90
2022-07-29T11:21:59.959Z,66.50
2022-07-29T11:24:32.400Z,66.20
2022-07-29T11:27:20.040Z,66.60
2022-07-29T11:29:54.370Z,68.10
2022-07-29T11:32:25.012Z,68.90
2022-07-29T11:35:18.997Z,69.30
2022-07-29T11:40:38.872Z,69.40
2022-07-29T11:43:11.301Z,68.90
2022-07-29T11:45:48.567Z,68.40
2022-07-29T11:48:29.147Z,67.40
2022-07-29T11:51:00.261Z,66.80
2022-07-29T11:53:32.803Z,64.50
2022-07-29T11:56:03.893Z,64.60
2022-07-29T11:58:33.822Z,63.00
2022-07-29T12:01:05.008Z,63.10
2022-07-29T12:03:36.869Z,61.70
2022-07-29T12:06:14.109Z,61.10
2022-07-29T12:08:45.284Z,61.00
2022-07-29T12:11:23.262Z,59.90
2022-07-29T12:13:53.067Z,59.30
2022-07-29T12:16:25.470Z,59.50
2022-07-29T12:18:59.919Z,59.10
2022-07-29T12:21:29.320Z,57.90
2022-07-29T12:24:05.476Z,58.00
2022-07-29T12:26:51.023Z,56.90
2022-07-29T12:29:33.793Z,57.10
2022-07-29T12:32:05.252Z,56.80
2022-07-29T12:34:35.026Z,56.90
2022-07-29T12:37:04.247Z,57.30
2022-07-29T12:39:32.940Z,56.70
2022-07-29T12:42:14.798Z,56.40
2022-07-29T12:44:47.592Z,56.70
2022-07-29T12:47:16.220Z,56.80
2022-07-29T12:49:44.700Z,56.90
2022-07-29T12:52:37.526Z,55.90
2022-07-29T12:55:06.914Z,56.00
2022-07-29T12:57:47.554Z,56.10
2022-07-29T13:00:17.519Z,56.80
2022-07-29T13:02:46.362Z,56.40
2022-07-29T13:05:14.920Z,56.50
2022-07-29T13:07:55.724Z,56.90
2022-07-29T13:10:27.077Z,57.50
2022-07-29T13:13:09.074Z,57.90
2022-07-29T13:15:39.010Z,56.10
2022-07-29T13:18:28.013Z,55.60
2022-07-29T13:20:56.750Z,55.60
2022-07-29T13:23:25.272Z,55.80
2022-07-29T13:25:54.739Z,55.00
2022-07-29T13:28:25.179Z,53.60
2022-07-29T13:30:53.694Z,53.30
2022-07-29T13:33:22.169Z,53.90
2022-07-29T13:35:50.691Z,53.10
2022-07-29T13:38:19.302Z,53.80
2022-07-29T13:40:47.860Z,53.40
2022-07-29T13:43:16.493Z,52.20
2022-07-29T13:45:46.392Z,53.90
2022-07-29T13:48:14.923Z,54.80
2022-07-29T13:50:43.457Z,55.40
2022-07-29T13:53:17.738Z,53.70
2022-07-29T13:55:47.319Z,54.20
2022-07-29T13:58:16.993Z,53.70
2022-07-29T14:00:47.710Z,53.60
2022-07-29T14:03:16.169Z,54.90
2022-07-29T14:05:44.910Z,54.10
2022-07-29T14:08:13.868Z,55.50
2022-07-29T14:10:42.319Z,55.80
2022-07-29T14:13:24.346Z,55.00
2022-07-29T14:15:55.804Z,54.30
2022-07-29T14:18:24.266Z,53.70
2022-07-29T14:20:52.970Z,54.30
2022-07-29T14:23:21.828Z,53.10
2022-07-29T14:25:50.704Z,53.50
2022-07-29T14:28:19.754Z,52.50
2022-07-29T14:30:48.360Z,53.60
2022-07-29T14:33:18.301Z,53.40
2022-07-29T14:35:47.521Z,53.20
2022-07-29T14:38:16.065Z,52.90
2022-07-29T14:40:44.707Z,53.10
2022-07-29T14:43:13.188Z,54.20
2022-07-29T14:45:41.797Z,52.80
2022-07-29T14:48:10.258Z,51.70
2022-07-29T14:50:40.418Z,51.40
2022-07-29T14:53:09.044Z,50.90
2022-07-29T14:55:37.617Z,50.10
2022-07-29T14:58:12.115Z,50.50
2022-07-29T15:00:43.344Z,53.10
2022-07-29T15:03:11.894Z,52.80
2022-07-29T15:05:42.110Z,52.60
2022-07-29T15:08:10.601Z,52.10
2022-07-29T15:10:39.066Z,51.50
2022-07-29T15:13:07.541Z,50.20
2022-07-29T15:15:35.978Z,51.50
2022-07-29T15:18:04.525Z,52.10
2022-07-29T15:20:33.143Z,51.30
2022-07-29T15:23:03.132Z,50.70
2022-07-29T15:25:31.687Z,51.00
2022-07-29T15:28:03.255Z,51.10
2022-07-29T15:30:34.628Z,50.70
2022-07-29T15:33:04.744Z,50.40
2022-07-29T15:35:33.408Z,50.40
2022-07-29T15:38:10.691Z,49.60
2022-07-29T15:40:41.258Z,49.00
2022-07-29T15:43:09.961Z,50.20
2022-07-29T15:45:40.419Z,50.40
2022-07-29T15:48:13.282Z,49.70
2022-07-29T15:50:47.031Z,49.00
2022-07-29T15:53:17.159Z,49.20
2022-07-29T15:55:46.057Z,48.90
2022-07-29T15:58:14.593Z,49.30
2022-07-29T16:00:43.094Z,49.70
2022-07-29T16:03:11.585Z,49.80
2022-07-29T16:05:40.087Z,50.60
2022-07-29T16:08:08.593Z,50.00
2022-07-29T16:10:38.431Z,49.70
2022-07-29T16:13:06.962Z,48.80
2022-07-29T16:15:35.545Z,48.00
2022-07-29T16:18:04.031Z,47.30
2022-07-29T16:20:36.506Z,47.40
2022-07-29T16:23:05.550Z,48.90
2022-07-29T16:25:58.637Z,48.80
2022-07-29T16:28:24.005Z,48.40
2022-07-29T16:30:52.452Z,48.00
2022-07-29T16:33:20.926Z,47.90
2022-07-29T16:35:49.428Z,48.30
2022-07-29T16:38:17.982Z,47.70
2022-07-29T16:40:46.489Z,46.80
2022-07-29T16:43:15.023Z,47.60
2022-07-29T16:45:46.153Z,47.60
2022-07-29T16:48:15.241Z,47.20
2022-07-29T16:50:46.750Z,48.00
2022-07-29T16:53:15.214Z,47.80
2022-07-29T16:55:43.784Z,48.10
2022-07-29T16:58:13.773Z,48.30
2022-07-29T17:00:42.529Z,48.60
2022-07-29T17:03:13.448Z,48.30
2022-07-29T17:05:52.803Z,48.10
2022-07-29T17:08:23.159Z,48.50
2022-07-29T17:10:51.807Z,49.90
2022-07-29T17:13:21.364Z,50.30
2022-07-29T17:15:49.931Z,50.10
2022-07-29T17:18:19.840Z,50.50
2022-07-29T17:20:48.269Z,51.30
2022-07-29T17:23:16.765Z,52.00
2022-07-29T17:25:45.195Z,52.20
2022-07-29T17:28:13.719Z,52.70
2022-07-29T17:30:42.239Z,53.10
2022-07-29T17:33:10.769Z,53.40
2022-07-29T17:35:57.978Z,54.20
2022-07-29T17:38:27.359Z,56.00
2022-07-29T17:40:55.834Z,58.70
2022-07-29T17:43:24.337Z,61.50
2022-07-29T17:45:55.865Z,62.50
2022-07-29T17:48:28.135Z,64.30
2022-07-29T17:50:58.122Z,65.50
2022-07-29T17:53:26.660Z,66.70
2022-07-29T17:55:56.426Z,67.90
2022-07-29T17:58:25.045Z,69.40
2022-07-29T18:00:53.726Z,71.00
2022-07-29T18:03:22.305Z,71.60
2022-07-29T18:05:51.089Z,71.30
2022-07-29T18:08:22.618Z,71.80
2022-07-29T18:10:51.756Z,73.10
2022-07-29T18:13:20.362Z,73.90
2022-07-29T18:15:49.198Z,75.70
2022-07-29T18:18:18.400Z,76.40
2022-07-29T18:20:47.149Z,78.30
2022-07-29T18:23:16.864Z,78.10
2022-07-29T18:25:46.802Z,79.40
2022-07-29T18:28:15.223Z,81.20
2022-07-29T18:30:45.058Z,81.20
2022-07-29T18:33:24.287Z,81.90
2022-07-29T18:36:04.220Z,81.80
2022-07-29T18:38:39.819Z,81.30
2022-07-29T18:41:09.710Z,81.30
2022-07-29T18:43:38.293Z,80.70
2022-07-29T18:46:06.871Z,79.60
2022-07-29T18:48:35.700Z,78.30
2022-07-29T18:51:09.332Z,80.10
2022-07-29T18:53:38.419Z,81.60
2022-07-29T18:56:06.998Z,82.30
2022-07-29T18:58:38.298Z,83.30
2022-07-29T19:01:07.073Z,84.50
2022-07-29T19:03:35.637Z,83.90
2022-07-29T19:06:05.600Z,86.90
2022-07-29T19:08:37.825Z,88.80
2022-07-29T19:11:06.910Z,88.00
2022-07-29T19:13:37.512Z,87.90
2022-07-29T19:16:06.683Z,89.10
2022-07-29T19:18:35.608Z,90.80
2022-07-29T19:21:04.149Z,91.30
2022-07-29T19:24:00.660Z,91.00
2022-07-29T19:26:22.359Z,92.00
2022-07-29T19:28:52.403Z,92.10
2022-07-29T19:31:20.965Z,92.40
2022-07-29T19:33:49.451Z,92.80
2022-07-29T19:36:17.930Z,92.40
2022-07-29T19:38:46.379Z,92.30
2022-07-29T19:41:17.055Z,92.80
2022-07-29T19:43:50.452Z,93.40
2022-07-29T19:46:22.940Z,93.70
2022-07-29T19:48:52.984Z,93.50
2022-07-29T19:51:21.443Z,94.10
2022-07-29T19:53:49.983Z,94.50
2022-07-29T19:56:18.485Z,94.70
2022-07-29T19:58:47.952Z,94.20
2022-07-29T20:01:17.068Z,93.30
2022-07-29T20:03:47.101Z,92.80
2022-07-29T20:06:15.575Z,92.20
2022-07-29T20:08:45.259Z,92.00
2022-07-29T20:11:13.820Z,92.10
2022-07-29T20:13:42.253Z,92.00
2022-07-29T20:16:10.829Z,91.70
2022-07-29T20:18:39.424Z,91.60
2022-07-29T20:21:09.388Z,91.60
2022-07-29T20:23:37.851Z,91.70
2022-07-29T20:26:09.513Z,91.30
2022-07-29T20:28:40.301Z,91.00
2022-07-29T20:31:09.160Z,91.10
2022-07-29T20:33:37.859Z,90.50
2022-07-29T20:36:08.371Z,90.60
2022-07-29T20:38:36.941Z,90.70
2022-07-29T20:41:05.937Z,90.30
2022-07-29T20:43:38.933Z,90.50
2022-07-29T20:46:07.923Z,90.40
2022-07-29T20:48:36.433Z,89.90
2022-07-29T20:51:04.936Z,90.10
2022-07-29T20:53:34.899Z,89.50
2022-07-29T20:56:03.378Z,89.50
2022-07-29T20:58:32.734Z,89.30
2022-07-29T21:01:01.620Z,89.10
2022-07-29T21:03:30.095Z,88.80
2022-07-29T21:05:58.715Z,88.70
2022-07-29T21:08:27.621Z,88.20
2022-07-29T21:10:57.777Z,87.70
2022-07-29T21:13:26.626Z,87.50
2022-07-29T21:15:59.070Z,87.40
2022-07-29T21:18:32.569Z,87.90
2022-07-29T21:21:02.271Z,87.70
2022-07-29T21:23:31.276Z,87.70
2022-07-29T21:26:01.232Z,87.10
2022-07-29T21:28:30.518Z,86.20
2022-07-29T21:31:01.061Z,86.00
2022-07-29T21:33:31.007Z,86.00
2022-07-29T21:36:15.355Z,85.20
2022-07-29T21:38:48.075Z,86.00
2022-07-29T21:41:17.939Z,84.90
2022-07-29T21:43:46.408Z,85.00
2022-07-29T21:46:17.003Z,85.30
2022-07-29T21:48:45.586Z,86.50
2022-07-29T21:51:14.129Z,87.30
2022-07-29T21:53:43.528Z,87.50
2022-07-29T21:56:14.545Z,87.90
2022-07-29T21:58:45.114Z,87.60
2022-07-29T22:01:13.606Z,87.90
2022-07-29T22:03:42.065Z,88.20
2022-07-29T22:06:11.376Z,88.70
2022-07-29T22:08:48.022Z,88.60
2022-07-29T22:11:16.844Z,87.80
2022-07-29T22:13:46.690Z,88.20
2022-07-29T22:16:15.361Z,87.40
2022-07-29T22:18:46.956Z,87.70
2022-07-29T22:21:15.968Z,87.90
2022-07-29T22:23:44.650Z,87.50
2022-07-29T22:26:13.217Z,87.90
2022-07-29T22:28:41.634Z,88.00
2022-07-29T22:31:12.281Z,88.10
2022-07-29T22:33:40.884Z,87.10
2022-07-29T22:36:09.598Z,86.90
2022-07-29T22:38:38.093Z,86.40
2022-07-29T22:41:06.551Z,86.80
2022-07-29T22:43:35.183Z,87.70
2022-07-29T22:46:03.749Z,87.50
2022-07-29T22:48:33.872Z,87.10
2022-07-29T22:51:02.385Z,87.60
2022-07-29T22:53:30.864Z,87.10
2022-07-29T22:55:59.408Z,87.20
2022-07-29T22:58:27.932Z,87.60
2022-07-29T23:00:56.428Z,87.50
2022-07-29T23:03:25.017Z,86.70
2022-07-29T23:05:54.944Z,86.70
2022-07-29T23:08:23.377Z,86.30
2022-07-29T23:10:51.834Z,86.00
2022-07-29T23:13:20.290Z,86.00
2022-07-29T23:15:48.742Z,85.60
2022-07-29T23:18:17.184Z,84.70
2022-07-29T23:20:46.090Z,84.80
2022-07-29T23:23:15.929Z,85.00
2022-07-29T23:25:44.689Z,84.80
2022-07-29T23:28:14.391Z,84.90
2022-07-29T23:30:42.920Z,85.40
2022-07-29T23:33:11.482Z,85.40
2022-07-29T23:35:39.947Z,85.40
2022-07-29T23:38:08.418Z,84.70
2022-07-29T23:40:38.383Z,84.60
2022-07-29T23:43:08.877Z,83.80
2022-07-29T23:45:42.796Z,84.20
2022-07-29T23:48:14.635Z,84.40
2022-07-29T23:50:43.301Z,84.80
2022-07-29T23:53:12.324Z,85.70
2022-07-29T23:55:42.231Z,86.20
2022-07-29T23:58:10.780Z,86.70
